KLM121 LSGG-EHAM
Flight info
| Callsign | KLM121 |
|---|---|
| Flight time | 1h 11m |
| Altitude | 36000 |
| Route | ARBOS DCT PENDU DCT IXILU DCT GIVOR DCT SORAL DCT IBERA DCT BUB Y28 HELEN |
| Aircraft | B738/M-SDE2E3FGHIRWXY/LB1 |
Departure
| Time | 2026-05-06 10:53 |
|---|---|
| Airport | Geneva International Airport (LSGG) |
Arrival
| Time | 2026-05-06 12:04 |
|---|---|
| Airport | Amsterdam Airport Schiphol (EHAM) |
| Time | Latitude | Longitude | Altitude | Speed | Heading |
|---|---|---|---|---|---|
| 2026-05-06 10:34 | 46.23131 | 6.10700 | 1391 ft | 0 kts | 136° |
| 2026-05-06 10:40 | 46.23141 | 6.10685 | 1385 ft | 2 kts | 121° |
| 2026-05-06 10:40 | 46.23147 | 6.10663 | 1386 ft | 2 kts | 95° |
| 2026-05-06 10:41 | 46.23146 | 6.10640 | 1384 ft | 2 kts | 69° |
| 2026-05-06 10:41 | 46.23138 | 6.10619 | 1385 ft | 2 kts | 53° |
| 2026-05-06 10:41 | 46.23131 | 6.10606 | 1385 ft | 1 kts | 48° |
| 2026-05-06 10:41 | 46.23130 | 6.10604 | 1385 ft | 0 kts | 48° |
| 2026-05-06 10:42 | 46.23131 | 6.10606 | 1385 ft | 1 kts | 48° |
| 2026-05-06 10:43 | 46.23136 | 6.10613 | 1385 ft | 2 kts | 47° |
| 2026-05-06 10:43 | 46.23147 | 6.10629 | 1387 ft | 3 kts | 46° |
| 2026-05-06 10:43 | 46.23170 | 6.10654 | 1384 ft | 5 kts | 21° |
| 2026-05-06 10:44 | 46.23228 | 6.10600 | 1385 ft | 5 kts | 315° |
| 2026-05-06 10:44 | 46.23249 | 6.10570 | 1386 ft | 4 kts | 315° |
| 2026-05-06 10:44 | 46.23266 | 6.10546 | 1383 ft | 3 kts | 315° |
| 2026-05-06 10:44 | 46.23286 | 6.10522 | 1385 ft | 5 kts | 331° |
| 2026-05-06 10:45 | 46.23323 | 6.10533 | 1385 ft | 7 kts | 46° |
| 2026-05-06 10:45 | 46.23366 | 6.10593 | 1382 ft | 11 kts | 43° |
| 2026-05-06 10:45 | 46.23434 | 6.10685 | 1382 ft | 16 kts | 43° |
| 2026-05-06 10:45 | 46.23525 | 6.10818 | 1381 ft | 20 kts | 45° |
| 2026-05-06 10:46 | 46.23625 | 6.10964 | 1377 ft | 21 kts | 43° |
| 2026-05-06 10:46 | 46.23726 | 6.11110 | 1377 ft | 19 kts | 45° |
| 2026-05-06 10:46 | 46.23820 | 6.11247 | 1377 ft | 19 kts | 45° |
| 2026-05-06 10:46 | 46.23913 | 6.11381 | 1377 ft | 19 kts | 47° |
| 2026-05-06 10:47 | 46.24008 | 6.11523 | 1374 ft | 21 kts | 46° |
| 2026-05-06 10:47 | 46.24110 | 6.11674 | 1371 ft | 22 kts | 45° |
| 2026-05-06 10:47 | 46.24160 | 6.11747 | 1368 ft | 22 kts | 45° |
| 2026-05-06 10:47 | 46.24186 | 6.11784 | 1368 ft | 22 kts | 45° |
| 2026-05-06 10:48 | 46.24290 | 6.11935 | 1368 ft | 21 kts | 45° |
| 2026-05-06 10:48 | 46.24386 | 6.12079 | 1369 ft | 18 kts | 45° |
| 2026-05-06 10:48 | 46.24461 | 6.12189 | 1369 ft | 14 kts | 45° |
| 2026-05-06 10:48 | 46.24523 | 6.12278 | 1368 ft | 12 kts | 45° |
| 2026-05-06 10:49 | 46.24574 | 6.12353 | 1367 ft | 10 kts | 45° |
| 2026-05-06 10:49 | 46.24626 | 6.12428 | 1364 ft | 11 kts | 45° |
| 2026-05-06 10:49 | 46.24686 | 6.12515 | 1361 ft | 13 kts | 45° |
| 2026-05-06 10:49 | 46.24745 | 6.12601 | 1360 ft | 11 kts | 43° |
| 2026-05-06 10:50 | 46.24807 | 6.12664 | 1359 ft | 11 kts | 27° |
| 2026-05-06 10:50 | 46.24877 | 6.12698 | 1359 ft | 11 kts | 17° |
| 2026-05-06 10:50 | 46.24942 | 6.12724 | 1357 ft | 8 kts | 8° |
| 2026-05-06 10:50 | 46.24982 | 6.12701 | 1357 ft | 5 kts | 315° |
| 2026-05-06 10:51 | 46.24994 | 6.12664 | 1358 ft | 3 kts | 278° |
| 2026-05-06 10:51 | 46.24987 | 6.12634 | 1358 ft | 4 kts | 235° |
| 2026-05-06 10:51 | 46.24957 | 6.12588 | 1358 ft | 16 kts | 227° |
| 2026-05-06 10:51 | 46.24761 | 6.12295 | 1364 ft | 64 kts | 226° |
| 2026-05-06 10:52 | 46.24344 | 6.11685 | 1370 ft | 105 kts | 226° |
| 2026-05-06 10:52 | 46.23745 | 6.10811 | 1378 ft | 138 kts | 224° |
| 2026-05-06 10:52 | 46.23025 | 6.09712 | 1466 ft | 159 kts | 228° |
| 2026-05-06 10:52 | 46.22259 | 6.08572 | 1937 ft | 152 kts | 226° |
| 2026-05-06 10:53 | 46.21510 | 6.07388 | 2328 ft | 167 kts | 233° |
| 2026-05-06 10:53 | 46.20762 | 6.06112 | 2847 ft | 172 kts | 223° |
| 2026-05-06 10:53 | 46.19844 | 6.04931 | 3293 ft | 182 kts | 224° |
| 2026-05-06 10:53 | 46.18914 | 6.03619 | 3665 ft | 193 kts | 225° |
| 2026-05-06 10:54 | 46.17915 | 6.02247 | 4057 ft | 204 kts | 227° |
| 2026-05-06 10:54 | 46.16901 | 6.00758 | 4453 ft | 212 kts | 226° |
| 2026-05-06 10:54 | 46.15877 | 5.99209 | 4919 ft | 210 kts | 229° |
| 2026-05-06 10:54 | 46.14849 | 5.97689 | 5195 ft | 212 kts | 226° |
| 2026-05-06 10:55 | 46.13800 | 5.96179 | 5429 ft | 214 kts | 229° |
| 2026-05-06 10:55 | 46.12775 | 5.94667 | 5758 ft | 211 kts | 229° |
| 2026-05-06 10:55 | 46.11761 | 5.93159 | 6138 ft | 208 kts | 229° |
| 2026-05-06 10:55 | 46.10748 | 5.91655 | 6405 ft | 210 kts | 229° |
| 2026-05-06 10:56 | 46.09723 | 5.90138 | 6628 ft | 213 kts | 229° |
| 2026-05-06 10:56 | 46.08683 | 5.88600 | 6877 ft | 215 kts | 229° |
| 2026-05-06 10:56 | 46.07636 | 5.87053 | 7148 ft | 216 kts | 229° |
| 2026-05-06 10:56 | 46.06582 | 5.85497 | 7405 ft | 217 kts | 229° |
| 2026-05-06 10:57 | 46.05530 | 5.83944 | 7654 ft | 217 kts | 229° |
| 2026-05-06 10:57 | 46.04475 | 5.82386 | 7911 ft | 217 kts | 229° |
| 2026-05-06 10:57 | 46.03416 | 5.80824 | 8121 ft | 228 kts | 229° |
| 2026-05-06 10:57 | 46.02269 | 5.79128 | 8347 ft | 245 kts | 228° |
| 2026-05-06 10:58 | 46.01028 | 5.77300 | 8546 ft | 263 kts | 228° |
| 2026-05-06 10:58 | 45.99768 | 5.75347 | 9002 ft | 269 kts | 238° |
| 2026-05-06 10:58 | 45.99053 | 5.72879 | 9582 ft | 270 kts | 261° |
| 2026-05-06 10:58 | 45.99080 | 5.70177 | 10221 ft | 274 kts | 283° |
| 2026-05-06 10:59 | 45.99882 | 5.67677 | 10846 ft | 281 kts | 306° |
| 2026-05-06 10:59 | 46.01381 | 5.65830 | 11449 ft | 290 kts | 330° |
| 2026-05-06 10:59 | 46.03354 | 5.65066 | 12011 ft | 301 kts | 356° |
| 2026-05-06 10:59 | 46.05460 | 5.65531 | 12373 ft | 314 kts | 12° |
| 2026-05-06 11:00 | 46.07614 | 5.66421 | 12654 ft | 329 kts | 15° |
| 2026-05-06 11:00 | 46.09822 | 5.67404 | 12973 ft | 343 kts | 14° |
| 2026-05-06 11:00 | 46.12142 | 5.68365 | 13352 ft | 350 kts | 13° |
| 2026-05-06 11:00 | 46.14520 | 5.69305 | 13795 ft | 356 kts | 13° |
| 2026-05-06 11:01 | 46.16921 | 5.70278 | 14244 ft | 362 kts | 14° |
| 2026-05-06 11:01 | 46.19361 | 5.71291 | 14688 ft | 365 kts | 14° |
| 2026-05-06 11:01 | 46.21823 | 5.72308 | 15129 ft | 369 kts | 14° |
| 2026-05-06 11:01 | 46.24308 | 5.73324 | 15581 ft | 372 kts | 15° |
| 2026-05-06 11:02 | 46.26812 | 5.74350 | 16038 ft | 376 kts | 15° |
| 2026-05-06 11:02 | 46.29350 | 5.75395 | 16493 ft | 379 kts | 15° |
| 2026-05-06 11:02 | 46.31855 | 5.76429 | 16949 ft | 382 kts | 15° |
| 2026-05-06 11:02 | 46.34424 | 5.77488 | 17410 ft | 385 kts | 15° |
| 2026-05-06 11:03 | 46.37008 | 5.78553 | 17870 ft | 387 kts | 15° |
| 2026-05-06 11:03 | 46.39648 | 5.79327 | 18316 ft | 389 kts | 1° |
| 2026-05-06 11:03 | 46.42324 | 5.78875 | 18704 ft | 389 kts | 341° |
| 2026-05-06 11:03 | 46.44792 | 5.77294 | 19093 ft | 390 kts | 331° |
| 2026-05-06 11:04 | 46.47182 | 5.75380 | 19464 ft | 392 kts | 329° |
| 2026-05-06 11:04 | 46.49547 | 5.73397 | 19842 ft | 395 kts | 329° |
| 2026-05-06 11:04 | 46.51956 | 5.71433 | 20192 ft | 398 kts | 330° |
| 2026-05-06 11:04 | 46.54394 | 5.69498 | 20533 ft | 401 kts | 331° |
| 2026-05-06 11:05 | 46.56843 | 5.67533 | 20891 ft | 403 kts | 330° |
| 2026-05-06 11:05 | 46.59295 | 5.65524 | 21246 ft | 406 kts | 330° |
| 2026-05-06 11:05 | 46.61759 | 5.63614 | 21643 ft | 406 kts | 338° |
| 2026-05-06 11:05 | 46.64494 | 5.62619 | 22034 ft | 407 kts | 356° |
| 2026-05-06 11:06 | 46.67312 | 5.62811 | 22414 ft | 406 kts | 13° |
| 2026-05-06 11:06 | 46.69968 | 5.64179 | 22879 ft | 405 kts | 30° |
| 2026-05-06 11:06 | 46.72248 | 5.66568 | 23414 ft | 405 kts | 44° |
| 2026-05-06 11:06 | 46.74332 | 5.69364 | 23814 ft | 407 kts | 45° |
| 2026-05-06 11:07 | 46.76381 | 5.72241 | 24147 ft | 413 kts | 46° |
| 2026-05-06 11:07 | 46.78479 | 5.75164 | 24402 ft | 419 kts | 46° |
| 2026-05-06 11:07 | 46.80626 | 5.78083 | 24628 ft | 424 kts | 45° |
| 2026-05-06 11:07 | 46.82802 | 5.81044 | 24831 ft | 429 kts | 46° |
| 2026-05-06 11:08 | 46.84952 | 5.84014 | 25053 ft | 432 kts | 46° |
| 2026-05-06 11:08 | 46.87138 | 5.87044 | 25292 ft | 435 kts | 46° |
| 2026-05-06 11:08 | 46.89340 | 5.90081 | 25515 ft | 437 kts | 46° |
| 2026-05-06 11:08 | 46.91562 | 5.93140 | 25748 ft | 440 kts | 46° |
| 2026-05-06 11:09 | 46.93796 | 5.96229 | 26005 ft | 442 kts | 46° |
| 2026-05-06 11:09 | 46.96181 | 5.99108 | 26260 ft | 447 kts | 35° |
| 2026-05-06 11:09 | 46.98952 | 6.01223 | 26508 ft | 453 kts | 23° |
| 2026-05-06 11:09 | 47.02001 | 6.02453 | 26756 ft | 458 kts | 10° |
| 2026-05-06 11:10 | 47.05181 | 6.02773 | 27013 ft | 461 kts | 2° |
| 2026-05-06 11:10 | 47.08400 | 6.02834 | 27254 ft | 463 kts | 2° |
| 2026-05-06 11:10 | 47.11632 | 6.02858 | 27515 ft | 464 kts | 2° |
| 2026-05-06 11:10 | 47.14869 | 6.02905 | 27744 ft | 466 kts | 2° |
| 2026-05-06 11:11 | 47.18118 | 6.02976 | 27974 ft | 468 kts | 2° |
| 2026-05-06 11:11 | 47.21378 | 6.03041 | 28211 ft | 470 kts | 2° |
| 2026-05-06 11:11 | 47.24651 | 6.03089 | 28414 ft | 471 kts | 2° |
| 2026-05-06 11:11 | 47.27892 | 6.03139 | 28630 ft | 473 kts | 2° |
| 2026-05-06 11:12 | 47.31188 | 6.03198 | 28859 ft | 474 kts | 2° |
| 2026-05-06 11:12 | 47.34503 | 6.03260 | 29142 ft | 476 kts | 2° |
| 2026-05-06 11:12 | 47.37833 | 6.03322 | 29409 ft | 478 kts | 2° |
| 2026-05-06 11:12 | 47.41168 | 6.03399 | 29619 ft | 480 kts | 3° |
| 2026-05-06 11:13 | 47.44516 | 6.03482 | 29859 ft | 482 kts | 2° |
| 2026-05-06 11:13 | 47.47877 | 6.03556 | 30043 ft | 484 kts | 2° |
| 2026-05-06 11:13 | 47.51257 | 6.03626 | 30201 ft | 485 kts | 2° |
| 2026-05-06 11:13 | 47.54641 | 6.03700 | 30353 ft | 487 kts | 2° |
| 2026-05-06 11:14 | 47.58035 | 6.03780 | 30516 ft | 489 kts | 2° |
| 2026-05-06 11:14 | 47.61441 | 6.03857 | 30659 ft | 490 kts | 2° |
| 2026-05-06 11:14 | 47.64819 | 6.03931 | 30808 ft | 492 kts | 1° |
| 2026-05-06 11:14 | 47.68248 | 6.04007 | 30969 ft | 494 kts | 1° |
| 2026-05-06 11:15 | 47.71696 | 6.04086 | 31140 ft | 495 kts | 1° |
| 2026-05-06 11:15 | 47.75143 | 6.04511 | 31316 ft | 495 kts | 12° |
| 2026-05-06 11:15 | 47.78506 | 6.05656 | 31480 ft | 497 kts | 15° |
| 2026-05-06 11:15 | 47.81835 | 6.07061 | 31627 ft | 498 kts | 17° |
| 2026-05-06 11:16 | 47.85149 | 6.08405 | 31826 ft | 500 kts | 14° |
| 2026-05-06 11:16 | 47.88532 | 6.09602 | 32059 ft | 500 kts | 13° |
| 2026-05-06 11:16 | 47.91917 | 6.10800 | 32309 ft | 500 kts | 14° |
| 2026-05-06 11:16 | 47.95292 | 6.12104 | 32551 ft | 500 kts | 15° |
| 2026-05-06 11:17 | 47.98664 | 6.13431 | 32790 ft | 500 kts | 14° |
| 2026-05-06 11:17 | 48.02046 | 6.14702 | 33044 ft | 500 kts | 14° |
| 2026-05-06 11:17 | 48.05419 | 6.15945 | 33293 ft | 500 kts | 14° |
| 2026-05-06 11:17 | 48.08799 | 6.17224 | 33541 ft | 501 kts | 14° |
| 2026-05-06 11:18 | 48.12172 | 6.18526 | 33792 ft | 501 kts | 14° |
| 2026-05-06 11:18 | 48.14402 | 6.19381 | 33932 ft | 501 kts | 14° |
| 2026-05-06 11:18 | 48.17797 | 6.20664 | 34146 ft | 501 kts | 14° |
| 2026-05-06 11:18 | 48.22272 | 6.22360 | 34439 ft | 501 kts | 14° |
| 2026-05-06 11:19 | 48.25655 | 6.23658 | 34668 ft | 501 kts | 14° |
| 2026-05-06 11:19 | 48.27940 | 6.24535 | 34820 ft | 501 kts | 14° |
| 2026-05-06 11:19 | 48.31313 | 6.25825 | 35053 ft | 501 kts | 14° |
| 2026-05-06 11:19 | 48.34695 | 6.27117 | 35281 ft | 501 kts | 14° |
| 2026-05-06 11:20 | 48.39176 | 6.28837 | 35579 ft | 502 kts | 14° |
| 2026-05-06 11:20 | 48.41461 | 6.29717 | 35733 ft | 502 kts | 14° |
| 2026-05-06 11:20 | 48.44837 | 6.31016 | 35951 ft | 502 kts | 14° |
| 2026-05-06 11:20 | 48.48226 | 6.32321 | 36174 ft | 502 kts | 14° |
| 2026-05-06 11:21 | 48.51615 | 6.33628 | 36399 ft | 502 kts | 14° |
| 2026-05-06 11:21 | 48.55001 | 6.34936 | 36634 ft | 502 kts | 14° |
| 2026-05-06 11:21 | 48.58395 | 6.36250 | 36863 ft | 503 kts | 14° |
| 2026-05-06 11:21 | 48.61777 | 6.37560 | 37064 ft | 503 kts | 14° |
| 2026-05-06 11:22 | 48.65136 | 6.38843 | 37267 ft | 503 kts | 11° |
| 2026-05-06 11:22 | 48.68602 | 6.39463 | 37511 ft | 502 kts | 3° |
| 2026-05-06 11:22 | 48.72084 | 6.39792 | 37649 ft | 499 kts | 2° |
| 2026-05-06 11:23 | 48.78891 | 6.40441 | 37637 ft | 482 kts | 3° |
| 2026-05-06 11:23 | 48.85546 | 6.41144 | 37623 ft | 476 kts | 2° |
| 2026-05-06 11:24 | 48.92153 | 6.41795 | 37626 ft | 474 kts | 2° |
| 2026-05-06 11:24 | 48.98679 | 6.42472 | 37630 ft | 473 kts | 2° |
| 2026-05-06 11:25 | 49.05240 | 6.43135 | 37622 ft | 472 kts | 2° |
| 2026-05-06 11:25 | 49.11794 | 6.43558 | 37649 ft | 469 kts | 348° |
| 2026-05-06 11:26 | 49.18099 | 6.41047 | 37634 ft | 468 kts | 340° |
| 2026-05-06 11:26 | 49.24401 | 6.38390 | 37629 ft | 469 kts | 344° |
| 2026-05-06 11:27 | 49.30684 | 6.35876 | 37635 ft | 469 kts | 342° |
| 2026-05-06 11:27 | 49.36978 | 6.33220 | 37634 ft | 469 kts | 343° |
| 2026-05-06 11:28 | 49.43285 | 6.30650 | 37636 ft | 469 kts | 342° |
| 2026-05-06 11:28 | 49.49589 | 6.27990 | 37641 ft | 469 kts | 339° |
| 2026-05-06 11:28 | 49.52490 | 6.25816 | 37692 ft | 464 kts | 324° |
| 2026-05-06 11:29 | 49.55089 | 6.22893 | 37640 ft | 460 kts | 317° |
| 2026-05-06 11:29 | 49.59917 | 6.16441 | 37633 ft | 459 kts | 318° |
| 2026-05-06 11:30 | 49.65012 | 6.10489 | 37637 ft | 459 kts | 321° |
| 2026-05-06 11:30 | 49.69986 | 6.04408 | 37640 ft | 458 kts | 318° |
| 2026-05-06 11:31 | 49.75005 | 5.98323 | 37638 ft | 459 kts | 320° |
| 2026-05-06 11:31 | 49.80035 | 5.92219 | 37644 ft | 459 kts | 319° |
| 2026-05-06 11:32 | 49.85047 | 5.86087 | 37644 ft | 459 kts | 320° |
| 2026-05-06 11:32 | 49.90077 | 5.79951 | 37654 ft | 459 kts | 319° |
| 2026-05-06 11:33 | 49.95061 | 5.73826 | 37663 ft | 459 kts | 319° |
| 2026-05-06 11:33 | 50.00106 | 5.67629 | 37663 ft | 460 kts | 319° |
| 2026-05-06 11:34 | 50.05091 | 5.61478 | 37670 ft | 460 kts | 319° |
| 2026-05-06 11:34 | 50.10108 | 5.55276 | 37677 ft | 460 kts | 319° |
| 2026-05-06 11:35 | 50.15117 | 5.49064 | 37693 ft | 460 kts | 319° |
| 2026-05-06 11:35 | 50.20128 | 5.42833 | 37684 ft | 460 kts | 319° |
| 2026-05-06 11:36 | 50.25107 | 5.36626 | 37683 ft | 460 kts | 319° |
| 2026-05-06 11:36 | 50.30093 | 5.30392 | 37690 ft | 459 kts | 319° |
| 2026-05-06 11:37 | 50.35070 | 5.24152 | 37687 ft | 457 kts | 319° |
| 2026-05-06 11:37 | 50.40035 | 5.17910 | 37692 ft | 456 kts | 319° |
| 2026-05-06 11:38 | 50.44981 | 5.11675 | 37691 ft | 456 kts | 319° |
| 2026-05-06 11:38 | 50.49928 | 5.05421 | 37699 ft | 457 kts | 319° |
| 2026-05-06 11:39 | 50.54885 | 4.99136 | 37708 ft | 457 kts | 319° |
| 2026-05-06 11:39 | 50.59828 | 4.92853 | 37710 ft | 457 kts | 319° |
| 2026-05-06 11:40 | 50.64737 | 4.86596 | 37710 ft | 457 kts | 319° |
| 2026-05-06 11:40 | 50.69685 | 4.80270 | 37717 ft | 457 kts | 319° |
| 2026-05-06 11:41 | 50.74607 | 4.73961 | 37261 ft | 456 kts | 319° |
| 2026-05-06 11:41 | 50.77079 | 4.70784 | 36660 ft | 457 kts | 319° |
| 2026-05-06 11:41 | 50.79546 | 4.67610 | 36083 ft | 458 kts | 319° |
| 2026-05-06 11:41 | 50.82021 | 4.64422 | 35486 ft | 459 kts | 319° |
| 2026-05-06 11:42 | 50.84500 | 4.61225 | 34869 ft | 460 kts | 320° |
| 2026-05-06 11:42 | 50.86985 | 4.58015 | 34254 ft | 461 kts | 320° |
| 2026-05-06 11:42 | 50.89470 | 4.54769 | 33571 ft | 462 kts | 316° |
| 2026-05-06 11:42 | 50.91468 | 4.50914 | 32975 ft | 457 kts | 302° |
| 2026-05-06 11:43 | 50.93119 | 4.46614 | 32337 ft | 455 kts | 298° |
| 2026-05-06 11:43 | 50.94671 | 4.42235 | 31712 ft | 454 kts | 299° |
| 2026-05-06 11:43 | 50.96304 | 4.37950 | 31108 ft | 453 kts | 301° |
| 2026-05-06 11:44 | 50.99652 | 4.29511 | 29871 ft | 450 kts | 300° |
| 2026-05-06 11:44 | 51.01248 | 4.25257 | 29224 ft | 446 kts | 300° |
| 2026-05-06 11:44 | 51.02820 | 4.21101 | 28633 ft | 443 kts | 300° |
| 2026-05-06 11:44 | 51.04429 | 4.16937 | 28029 ft | 440 kts | 301° |
| 2026-05-06 11:45 | 51.06024 | 4.12800 | 27450 ft | 436 kts | 300° |
| 2026-05-06 11:45 | 51.07588 | 4.08687 | 26862 ft | 433 kts | 300° |
| 2026-05-06 11:45 | 51.09157 | 4.04620 | 26279 ft | 430 kts | 305° |
| 2026-05-06 11:45 | 51.11232 | 4.01237 | 25711 ft | 429 kts | 320° |
| 2026-05-06 11:46 | 51.13624 | 3.98400 | 25129 ft | 427 kts | 324° |
| 2026-05-06 11:46 | 51.16092 | 3.95785 | 24552 ft | 425 kts | 324° |
| 2026-05-06 11:46 | 51.18511 | 3.93081 | 23987 ft | 422 kts | 322° |
| 2026-05-06 11:46 | 51.20824 | 3.90215 | 23407 ft | 420 kts | 320° |
| 2026-05-06 11:47 | 51.23197 | 3.87536 | 22823 ft | 417 kts | 333° |
| 2026-05-06 11:47 | 51.25954 | 3.86269 | 22381 ft | 413 kts | 352° |
| 2026-05-06 11:47 | 51.28774 | 3.86148 | 21857 ft | 410 kts | 1° |
| 2026-05-06 11:47 | 51.31616 | 3.86489 | 21317 ft | 407 kts | 4° |
| 2026-05-06 11:48 | 51.34427 | 3.86836 | 20768 ft | 403 kts | 1° |
| 2026-05-06 11:48 | 51.37225 | 3.86819 | 20264 ft | 399 kts | 356° |
| 2026-05-06 11:48 | 51.39992 | 3.86565 | 19719 ft | 396 kts | 356° |
| 2026-05-06 11:48 | 51.42744 | 3.86434 | 19201 ft | 394 kts | 358° |
| 2026-05-06 11:49 | 51.45481 | 3.86451 | 18681 ft | 391 kts | 359° |
| 2026-05-06 11:49 | 51.48187 | 3.86434 | 18167 ft | 388 kts | 358° |
| 2026-05-06 11:49 | 51.50877 | 3.86339 | 17610 ft | 385 kts | 357° |
| 2026-05-06 11:49 | 51.53537 | 3.86248 | 17111 ft | 380 kts | 359° |
| 2026-05-06 11:50 | 51.56167 | 3.86195 | 16609 ft | 376 kts | 359° |
| 2026-05-06 11:50 | 51.58747 | 3.86149 | 16118 ft | 372 kts | 358° |
| 2026-05-06 11:50 | 51.61324 | 3.86086 | 15630 ft | 369 kts | 358° |
| 2026-05-06 11:50 | 51.63876 | 3.86018 | 15153 ft | 365 kts | 358° |
| 2026-05-06 11:51 | 51.66410 | 3.85957 | 14670 ft | 362 kts | 358° |
| 2026-05-06 11:51 | 51.68922 | 3.85901 | 14196 ft | 359 kts | 358° |
| 2026-05-06 11:51 | 51.71410 | 3.85974 | 13702 ft | 358 kts | 9° |
| 2026-05-06 11:51 | 51.73705 | 3.87439 | 13233 ft | 357 kts | 32° |
| 2026-05-06 11:52 | 51.75617 | 3.89990 | 12743 ft | 355 kts | 43° |
| 2026-05-06 11:52 | 51.77313 | 3.92858 | 12279 ft | 352 kts | 45° |
| 2026-05-06 11:52 | 51.79019 | 3.95675 | 11818 ft | 348 kts | 42° |
| 2026-05-06 11:52 | 51.80805 | 3.98214 | 11369 ft | 344 kts | 39° |
| 2026-05-06 11:53 | 51.82618 | 4.00674 | 10878 ft | 329 kts | 39° |
| 2026-05-06 11:53 | 51.84256 | 4.03038 | 10383 ft | 303 kts | 41° |
| 2026-05-06 11:53 | 51.85767 | 4.05280 | 9963 ft | 290 kts | 41° |
| 2026-05-06 11:53 | 51.87281 | 4.07478 | 9571 ft | 292 kts | 40° |
| 2026-05-06 11:54 | 51.88801 | 4.09662 | 9166 ft | 293 kts | 40° |
| 2026-05-06 11:54 | 51.90319 | 4.11861 | 8783 ft | 293 kts | 40° |
| 2026-05-06 11:54 | 51.91855 | 4.13931 | 8718 ft | 281 kts | 36° |
| 2026-05-06 11:54 | 51.93357 | 4.15908 | 8714 ft | 275 kts | 39° |
| 2026-05-06 11:55 | 51.94786 | 4.17895 | 8696 ft | 265 kts | 38° |
| 2026-05-06 11:55 | 51.96165 | 4.19733 | 8706 ft | 254 kts | 37° |
| 2026-05-06 11:55 | 51.97526 | 4.21507 | 8500 ft | 249 kts | 37° |
| 2026-05-06 11:55 | 51.98848 | 4.23246 | 8150 ft | 242 kts | 38° |
| 2026-05-06 11:56 | 52.00144 | 4.24964 | 7788 ft | 239 kts | 38° |
| 2026-05-06 11:56 | 52.01424 | 4.26662 | 7422 ft | 237 kts | 38° |
| 2026-05-06 11:56 | 52.02701 | 4.28354 | 6943 ft | 235 kts | 38° |
| 2026-05-06 11:56 | 52.03920 | 4.29971 | 6471 ft | 231 kts | 38° |
| 2026-05-06 11:57 | 52.05155 | 4.31610 | 5959 ft | 228 kts | 38° |
| 2026-05-06 11:57 | 52.06381 | 4.33238 | 5442 ft | 227 kts | 38° |
| 2026-05-06 11:57 | 52.07599 | 4.34840 | 4969 ft | 223 kts | 37° |
| 2026-05-06 11:57 | 52.08803 | 4.36403 | 4572 ft | 221 kts | 37° |
| 2026-05-06 11:58 | 52.10013 | 4.37953 | 4181 ft | 220 kts | 37° |
| 2026-05-06 11:58 | 52.11199 | 4.39460 | 3800 ft | 217 kts | 37° |
| 2026-05-06 11:58 | 52.12383 | 4.40956 | 3411 ft | 214 kts | 37° |
| 2026-05-06 11:58 | 52.13559 | 4.42444 | 3015 ft | 215 kts | 37° |
| 2026-05-06 11:59 | 52.14739 | 4.43941 | 2675 ft | 213 kts | 37° |
| 2026-05-06 11:59 | 52.15906 | 4.45423 | 2419 ft | 213 kts | 37° |
| 2026-05-06 11:59 | 52.17073 | 4.46907 | 2166 ft | 213 kts | 37° |
| 2026-05-06 11:59 | 52.18229 | 4.48372 | 2001 ft | 203 kts | 37° |
| 2026-05-06 12:00 | 52.19309 | 4.49801 | 1996 ft | 195 kts | 40° |
| 2026-05-06 12:00 | 52.20225 | 4.51327 | 2003 ft | 189 kts | 49° |
| 2026-05-06 12:00 | 52.20992 | 4.53079 | 2003 ft | 186 kts | 56° |
| 2026-05-06 12:00 | 52.21652 | 4.54843 | 1990 ft | 180 kts | 57° |
| 2026-05-06 12:01 | 52.22283 | 4.56518 | 1996 ft | 170 kts | 56° |
| 2026-05-06 12:01 | 52.22914 | 4.58158 | 1981 ft | 165 kts | 55° |
| 2026-05-06 12:01 | 52.23505 | 4.59699 | 1981 ft | 155 kts | 55° |
| 2026-05-06 12:01 | 52.24072 | 4.61161 | 1795 ft | 149 kts | 56° |
| 2026-05-06 12:02 | 52.24606 | 4.62551 | 1582 ft | 136 kts | 56° |
| 2026-05-06 12:02 | 52.25099 | 4.63835 | 1362 ft | 132 kts | 56° |
| 2026-05-06 12:02 | 52.25583 | 4.65090 | 1125 ft | 132 kts | 54° |
| 2026-05-06 12:02 | 52.26069 | 4.66348 | 957 ft | 131 kts | 54° |
| 2026-05-06 12:03 | 52.26556 | 4.67615 | 809 ft | 131 kts | 55° |
| 2026-05-06 12:03 | 52.27031 | 4.68853 | 668 ft | 130 kts | 54° |
| 2026-05-06 12:03 | 52.27512 | 4.70099 | 527 ft | 129 kts | 56° |
| 2026-05-06 12:03 | 52.27990 | 4.71344 | 376 ft | 129 kts | 57° |
| 2026-05-06 12:04 | 52.28468 | 4.72586 | 212 ft | 130 kts | 59° |
| 2026-05-06 12:04 | 52.28948 | 4.73839 | 37 ft | 129 kts | 58° |
| 2026-05-06 12:04 | 52.29343 | 4.74856 | -1 ft | 72 kts | 58° |
| 2026-05-06 12:04 | 52.29513 | 4.75299 | -2 ft | 23 kts | 58° |
| 2026-05-06 12:05 | 52.29549 | 4.75393 | -3 ft | 17 kts | 58° |
| 2026-05-06 12:05 | 52.29685 | 4.75673 | -2 ft | 32 kts | 36° |
| 2026-05-06 12:05 | 52.29833 | 4.75834 | -3 ft | 19 kts | 28° |
| 2026-05-06 12:05 | 52.29908 | 4.75904 | -2 ft | 0 kts | 32° |
| 2026-05-06 12:07 | 52.29921 | 4.75916 | -2 ft | 6 kts | 30° |
| 2026-05-06 12:07 | 52.29988 | 4.75988 | -2 ft | 16 kts | 45° |
| 2026-05-06 12:07 | 52.30062 | 4.76170 | -2 ft | 22 kts | 58° |
| 2026-05-06 12:08 | 52.30123 | 4.76325 | -2 ft | 26 kts | 58° |
| 2026-05-06 12:08 | 52.30222 | 4.76589 | -1 ft | 29 kts | 58° |
| 2026-05-06 12:08 | 52.30332 | 4.76874 | -2 ft | 30 kts | 58° |
| 2026-05-06 12:08 | 52.30443 | 4.77163 | -2 ft | 29 kts | 58° |
| 2026-05-06 12:09 | 52.30543 | 4.77424 | -2 ft | 23 kts | 58° |
| 2026-05-06 12:09 | 52.30629 | 4.77568 | -2 ft | 16 kts | 24° |
| 2026-05-06 12:09 | 52.30732 | 4.77573 | -2 ft | 13 kts | 356° |
| 2026-05-06 12:09 | 52.30823 | 4.77588 | -2 ft | 14 kts | 6° |
| 2026-05-06 12:10 | 52.30926 | 4.77607 | -2 ft | 16 kts | 7° |
| 2026-05-06 12:10 | 52.31022 | 4.77562 | -2 ft | 15 kts | 304° |
| 2026-05-06 12:10 | 52.31073 | 4.77414 | -1 ft | 15 kts | 277° |
| 2026-05-06 12:10 | 52.31036 | 4.77307 | -1 ft | 10 kts | 180° |
| 2026-05-06 12:11 | 52.31001 | 4.77300 | -1 ft | 2 kts | 174° |
| 2026-05-06 12:11 | 52.30988 | 4.77300 | -1 ft | 0 kts | 180° |